Time;durP1;ratioP1;P1;durP2;ratioP2;P2;SDS_P1;SDS_P2;PMS_P1;PMS_P2;Temp;Humidity;BMP_temperature;BMP_pressure;BME280_temperature;BME280_humidity;BME280_pressure;Samples;Min_cycle;Max_cycle;Signal;HPM_P1;HPM_P2
2023/01/27 00:01:32;;;;;;;;;;;4.00;99.90;;;;;;5106740;27;20350;-80
2023/01/27 00:03:57;;;;;;;;;;;4.00;99.90;;;;;;5125855;27;19967;-80
2023/01/27 00:06:23;;;;;;;;;;;4.00;99.90;;;;;;5106807;27;19923;-81
2023/01/27 00:08:48;;;;;;;;;;;4.00;99.90;;;;;;5104763;28;19924;-81
2023/01/27 00:13:58;;;;;;;;;;;4.00;99.90;;;;;;5123691;27;19927;-81
2023/01/27 00:16:24;;;;;;;;;;;3.90;99.90;;;;;;5122209;27;19927;-80
2023/01/27 00:18:49;;;;;;;;;;;3.90;99.90;;;;;;5122589;27;20046;-81
2023/01/27 00:26:43;;;;;;;;;;;3.90;99.90;;;;;;5124044;27;19987;-81
2023/01/27 00:29:09;;;;;;;;;;;4.00;99.90;;;;;;5124901;27;19962;-81
2023/01/27 00:34:18;;;;;;;;;;;3.90;99.90;;;;;;5120631;27;19927;-81
2023/01/27 00:36:44;;;;;;;;;;;3.90;99.90;;;;;;5144887;27;19927;-81
2023/01/27 00:39:10;;;;;;;;;;;4.00;99.90;;;;;;5131773;27;19945;-81
2023/01/27 00:41:36;;;;;;;;;;;4.00;99.90;;;;;;5100228;28;20392;-81
2023/01/27 00:44:03;;;;;;;;;;;4.00;99.90;;;;;;5122405;27;19924;-81
2023/01/27 00:46:29;;;;;;;;;;;4.00;99.90;;;;;;5120270;28;19934;-81
2023/01/27 00:48:54;;;;;;;;;;;4.10;99.90;;;;;;5096649;28;19924;-81
2023/01/27 00:51:20;;;;;;;;;;;4.00;99.90;;;;;;5106987;27;19980;-81
2023/01/27 00:53:47;;;;;;;;;;;4.00;99.90;;;;;;5105285;27;20382;-81
2023/01/27 00:56:12;;;;;;;;;;;4.00;99.90;;;;;;5106180;27;19979;-81
2023/01/27 00:58:38;;;;;;;;;;;4.00;99.90;;;;;;5118288;27;19966;-80
2023/01/27 01:01:05;;;;;;;;;;;4.00;99.90;;;;;;5117983;27;20416;-81
2023/01/27 01:03:31;;;;;;;;;;;4.00;99.90;;;;;;5119720;27;19984;-81
2023/01/27 01:06:01;;;;;;;;;;;4.00;99.90;;;;;;5121185;27;19923;-81
2023/01/27 01:08:28;;;;;;;;;;;4.00;99.90;;;;;;5107294;27;19924;-81
2023/01/27 01:10:54;;;;;;;;;;;4.00;99.90;;;;;;5122549;27;19923;-81
2023/01/27 01:13:20;;;;;;;;;;;4.00;99.90;;;;;;5106546;27;20001;-81
2023/01/27 01:15:46;;;;;;;;;;;4.00;99.90;;;;;;5123319;27;19927;-80
2023/01/27 01:18:12;;;;;;;;;;;4.00;99.90;;;;;;5122883;27;19931;-81
2023/01/27 01:20:38;;;;;;;;;;;4.00;99.90;;;;;;5106129;27;19923;-80
2023/01/27 01:23:05;;;;;;;;;;;4.00;99.90;;;;;;5105363;27;19924;-80
2023/01/27 01:25:30;;;;;;;;;;;4.00;99.90;;;;;;5107101;27;20007;-81
2023/01/27 01:27:56;;;;;;;;;;;4.00;99.90;;;;;;5105732;27;20302;-81
2023/01/27 01:30:25;;;;;;;;;;;4.00;99.90;;;;;;5122757;28;20351;-81
2023/01/27 01:32:51;;;;;;;;;;;4.10;99.90;;;;;;5125918;27;19923;-80
2023/01/27 01:35:17;;;;;;;;;;;4.10;99.90;;;;;;5124033;27;19927;-80
2023/01/27 01:37:43;;;;;;;;;;;4.00;99.90;;;;;;5126363;27;19923;-80
2023/01/27 01:40:11;;;;;;;;;;;4.00;99.90;;;;;;5118613;28;19927;-81
2023/01/27 01:42:49;;;;;;;;;;;4.00;99.90;;;;;;5119844;28;19939;-81
2023/01/27 01:45:44;;;;;;;;;;;4.00;99.90;;;;;;5119901;28;20323;-81
2023/01/27 01:48:12;;;;;;;;;;;4.00;99.90;;;;;;5098660;28;19928;-81
2023/01/27 01:50:39;;;;;;;;;;;4.00;99.90;;;;;;5114180;28;19923;-81
2023/01/27 01:53:05;;;;;;;;;;;4.00;99.90;;;;;;5118690;28;19946;-81
2023/01/27 01:55:33;;;;;;;;;;;4.00;99.90;;;;;;5111595;28;19924;-80
2023/01/27 01:57:59;;;;;;;;;;;4.10;99.90;;;;;;5099898;28;20048;-81
2023/01/27 02:00:25;;;;;;;;;;;4.00;99.90;;;;;;5119802;28;19964;-80
2023/01/27 02:02:51;;;;;;;;;;;4.00;99.90;;;;;;5121785;28;20011;-80
2023/01/27 02:05:33;;;;;;;;;;;4.10;99.90;;;;;;5102684;28;19927;-80
2023/01/27 02:08:24;;;;;;;;;;;4.10;99.90;;;;;;5102704;28;19927;-81
2023/01/27 02:10:51;;;;;;;;;;;4.10;99.90;;;;;;5097779;28;19924;-81
2023/01/27 02:13:16;;;;;;;;;;;4.10;99.90;;;;;;5107892;28;19949;-81
2023/01/27 02:15:42;;;;;;;;;;;4.10;99.90;;;;;;5118227;28;19924;-81
2023/01/27 02:18:08;;;;;;;;;;;4.10;99.90;;;;;;5101574;28;19971;-81
2023/01/27 02:20:33;;;;;;;;;;;4.10;99.90;;;;;;5102287;28;19999;-81
2023/01/27 02:23:02;;;;;;;;;;;4.10;99.90;;;;;;5101069;28;19928;-81
2023/01/27 02:25:34;;;;;;;;;;;4.20;99.90;;;;;;5119555;28;20499;-81
2023/01/27 02:28:04;;;;;;;;;;;4.20;99.90;;;;;;5117984;28;19928;-81
2023/01/27 02:30:29;;;;;;;;;;;4.20;99.90;;;;;;5118168;28;20465;-80
2023/01/27 02:32:55;;;;;;;;;;;4.20;99.90;;;;;;5097324;28;19966;-81
2023/01/27 02:35:23;;;;;;;;;;;4.20;99.90;;;;;;5096724;28;19924;-81
2023/01/27 02:37:49;;;;;;;;;;;4.10;99.90;;;;;;5090956;28;19931;-81
2023/01/27 02:40:16;;;;;;;;;;;4.10;99.90;;;;;;5097011;28;19930;-81
2023/01/27 02:42:41;;;;;;;;;;;4.10;99.90;;;;;;5120425;28;19950;-81
2023/01/27 02:45:07;;;;;;;;;;;4.10;99.90;;;;;;5106057;28;20320;-81
2023/01/27 02:47:33;;;;;;;;;;;4.10;99.90;;;;;;5125263;28;19928;-81
2023/01/27 02:49:58;;;;;;;;;;;4.10;99.90;;;;;;5125186;28;19924;-81
2023/01/27 02:52:24;;;;;;;;;;;4.10;99.90;;;;;;5122985;28;19924;-81
2023/01/27 02:54:49;;;;;;;;;;;4.10;99.90;;;;;;5117724;28;19983;-81
2023/01/27 02:57:15;;;;;;;;;;;4.10;99.90;;;;;;5089070;28;19924;-81
2023/01/27 02:59:40;;;;;;;;;;;4.20;99.90;;;;;;5103201;27;19924;-81
2023/01/27 03:02:06;;;;;;;;;;;4.10;99.90;;;;;;5124768;27;19928;-81
2023/01/27 03:04:32;;;;;;;;;;;4.20;99.90;;;;;;5108518;28;19927;-81
2023/01/27 03:06:57;;;;;;;;;;;4.20;99.90;;;;;;5117252;27;20048;-80
2023/01/27 03:09:23;;;;;;;;;;;4.20;99.90;;;;;;5109388;28;19931;-80
2023/01/27 03:20:02;;;;;;;;;;;4.20;99.90;;;;;;5124616;28;20010;-80
2023/01/27 03:22:28;;;;;;;;;;;4.20;99.90;;;;;;5124433;28;20377;-81
2023/01/27 03:24:53;;;;;;;;;;;4.20;99.90;;;;;;5105818;28;19939;-81
2023/01/27 03:27:19;;;;;;;;;;;4.20;99.90;;;;;;5097914;28;19928;-81
2023/01/27 03:29:53;;;;;;;;;;;4.20;99.90;;;;;;5107296;28;19924;-81
2023/01/27 03:32:19;;;;;;;;;;;4.20;99.90;;;;;;5131591;27;19928;-81
2023/01/27 03:34:45;;;;;;;;;;;4.20;99.90;;;;;;5107779;28;19923;-80
2023/01/27 03:48:08;;;;;;;;;;;4.30;99.90;;;;;;5127577;27;20419;-81
2023/01/27 03:50:40;;;;;;;;;;;4.30;99.90;;;;;;5111762;27;19924;-81
2023/01/27 03:53:06;;;;;;;;;;;4.30;99.90;;;;;;5116856;27;19950;-81
2023/01/27 03:55:33;;;;;;;;;;;4.30;99.90;;;;;;5122924;27;20405;-81
2023/01/27 04:00:55;;;;;;;;;;;4.30;99.90;;;;;;5129331;27;19923;-81
2023/01/27 04:08:54;;;;;;;;;;;4.40;99.90;;;;;;5125022;27;20332;-81
2023/01/27 04:14:04;;;;;;;;;;;4.40;99.90;;;;;;5123735;27;19927;-81
2023/01/27 04:16:30;;;;;;;;;;;4.30;99.90;;;;;;5125386;27;19924;-81
2023/01/27 04:18:56;;;;;;;;;;;4.30;99.90;;;;;;5123714;27;19928;-81
2023/01/27 04:21:24;;;;;;;;;;;4.40;99.90;;;;;;5125200;27;20439;-81
2023/01/27 04:23:50;;;;;;;;;;;4.30;99.90;;;;;;5142369;27;19924;-81
2023/01/27 04:26:16;;;;;;;;;;;4.40;99.90;;;;;;5124249;27;19931;-81
2023/01/27 04:28:41;;;;;;;;;;;4.30;99.90;;;;;;5124122;27;19949;-81
2023/01/27 04:31:07;;;;;;;;;;;4.30;99.90;;;;;;5125910;27;19933;-80
2023/01/27 04:33:32;;;;;;;;;;;4.30;99.90;;;;;;5128205;27;19950;-81
2023/01/27 04:35:58;;;;;;;;;;;4.30;99.90;;;;;;5106468;27;19935;-81
2023/01/27 04:38:23;;;;;;;;;;;4.30;99.90;;;;;;5124651;27;19940;-81
2023/01/27 04:40:49;;;;;;;;;;;4.30;99.90;;;;;;5117165;27;20421;-81
2023/01/27 04:43:15;;;;;;;;;;;4.30;99.90;;;;;;5127245;27;19939;-81
2023/01/27 04:45:40;;;;;;;;;;;4.30;99.90;;;;;;5141388;27;20036;-81
2023/01/27 04:48:06;;;;;;;;;;;4.30;99.90;;;;;;5124062;27;19959;-81
2023/01/27 04:50:32;;;;;;;;;;;4.30;99.90;;;;;;5124376;27;19924;-81
2023/01/27 04:52:58;;;;;;;;;;;4.30;99.90;;;;;;5123046;27;20390;-81
2023/01/27 04:55:23;;;;;;;;;;;4.30;99.90;;;;;;5124434;27;19923;-81
2023/01/27 04:57:49;;;;;;;;;;;4.20;99.90;;;;;;5102459;28;19946;-81
2023/01/27 05:00:15;;;;;;;;;;;4.20;99.90;;;;;;5114708;27;19924;-80
2023/01/27 05:02:40;;;;;;;;;;;4.20;99.90;;;;;;5114118;28;19993;-80
2023/01/27 05:05:06;;;;;;;;;;;4.20;99.90;;;;;;5115772;27;19931;-81
2023/01/27 05:07:31;;;;;;;;;;;4.20;99.90;;;;;;5123204;27;19947;-80
2023/01/27 05:09:57;;;;;;;;;;;4.20;99.90;;;;;;5116815;27;19923;-80
2023/01/27 05:12:23;;;;;;;;;;;4.10;99.90;;;;;;5106489;27;19928;-81
2023/01/27 05:14:49;;;;;;;;;;;4.20;99.90;;;;;;5122376;27;19931;-80
2023/01/27 05:17:14;;;;;;;;;;;4.10;99.90;;;;;;5121716;27;19931;-80
2023/01/27 05:19:40;;;;;;;;;;;4.10;99.90;;;;;;5122770;27;20035;-80
2023/01/27 05:22:06;;;;;;;;;;;4.10;99.90;;;;;;5099516;28;19928;-81
2023/01/27 05:24:31;;;;;;;;;;;4.10;99.90;;;;;;5119699;27;20755;-80
2023/01/27 05:26:57;;;;;;;;;;;4.10;99.90;;;;;;5102870;27;19980;-81
2023/01/27 05:29:22;;;;;;;;;;;4.00;99.90;;;;;;5118587;27;19923;-80
2023/01/27 05:31:48;;;;;;;;;;;4.00;99.90;;;;;;5121097;27;19990;-81
2023/01/27 05:34:15;;;;;;;;;;;4.00;99.90;;;;;;5123689;27;19924;-81
2023/01/27 05:36:41;;;;;;;;;;;4.00;99.90;;;;;;5122121;27;20345;-81
2023/01/27 05:39:08;;;;;;;;;;;4.00;99.90;;;;;;5121761;27;19942;-81
2023/01/27 05:41:34;;;;;;;;;;;4.00;99.90;;;;;;5102605;27;19931;-81
2023/01/27 05:44:00;;;;;;;;;;;4.00;99.90;;;;;;5121971;27;19934;-81
2023/01/27 05:46:27;;;;;;;;;;;4.00;99.90;;;;;;5123523;27;19923;-80
2023/01/27 05:48:54;;;;;;;;;;;4.00;99.90;;;;;;5121744;27;19943;-81
2023/01/27 05:51:21;;;;;;;;;;;4.00;99.90;;;;;;5123319;27;19930;-81
2023/01/27 05:53:46;;;;;;;;;;;4.00;99.90;;;;;;5087839;28;19939;-81
2023/01/27 05:56:13;;;;;;;;;;;4.00;99.90;;;;;;5101773;28;19924;-81
2023/01/27 05:58:39;;;;;;;;;;;3.90;99.90;;;;;;5120060;27;20005;-81
2023/01/27 06:01:06;;;;;;;;;;;4.00;99.90;;;;;;5101198;28;20384;-81
2023/01/27 06:03:31;;;;;;;;;;;3.90;99.90;;;;;;5120553;27;19924;-80
2023/01/27 06:05:57;;;;;;;;;;;4.00;99.90;;;;;;5120358;27;19930;-81
2023/01/27 06:08:23;;;;;;;;;;;4.00;99.90;;;;;;5126043;27;19924;-81
2023/01/27 06:10:49;;;;;;;;;;;3.90;99.90;;;;;;5098889;27;19931;-80
2023/01/27 06:13:15;;;;;;;;;;;3.90;99.90;;;;;;5116399;27;19962;-80
2023/01/27 06:15:44;;;;;;;;;;;3.90;99.90;;;;;;5105088;27;19924;-81
2023/01/27 06:18:10;;;;;;;;;;;3.90;99.90;;;;;;5116701;27;19927;-80
2023/01/27 06:20:36;;;;;;;;;;;3.90;99.90;;;;;;5120251;27;19971;-80
2023/01/27 06:23:01;;;;;;;;;;;3.90;99.90;;;;;;5102875;27;19974;-81
2023/01/27 06:25:27;;;;;;;;;;;3.90;99.90;;;;;;5112698;27;19923;-81
2023/01/27 06:27:56;;;;;;;;;;;3.90;99.90;;;;;;5103189;27;19924;-81
2023/01/27 06:30:21;;;;;;;;;;;3.90;99.90;;;;;;5113530;28;20443;-80
2023/01/27 06:32:47;;;;;;;;;;;3.80;99.90;;;;;;5094177;28;19924;-80
2023/01/27 06:35:13;;;;;;;;;;;3.90;99.90;;;;;;5094592;27;19950;-80
2023/01/27 06:37:38;;;;;;;;;;;3.80;99.90;;;;;;5115083;27;19927;-81
2023/01/27 06:40:04;;;;;;;;;;;3.80;99.90;;;;;;5121004;28;19945;-81
2023/01/27 06:42:30;;;;;;;;;;;3.80;99.90;;;;;;5120041;28;19991;-80
2023/01/27 06:44:55;;;;;;;;;;;3.80;99.90;;;;;;5136193;28;19972;-80
2023/01/27 06:47:21;;;;;;;;;;;3.80;99.90;;;;;;5139253;28;20164;-81
2023/01/27 06:49:46;;;;;;;;;;;3.80;99.90;;;;;;5102793;28;20292;-80
2023/01/27 06:52:12;;;;;;;;;;;3.70;99.90;;;;;;5119579;28;19924;-81
2023/01/27 06:54:37;;;;;;;;;;;3.80;99.90;;;;;;5122094;28;19923;-80
2023/01/27 06:57:03;;;;;;;;;;;3.80;99.90;;;;;;5103732;28;20021;-81
2023/01/27 06:59:29;;;;;;;;;;;3.80;99.90;;;;;;5122694;28;19952;-81
2023/01/27 07:01:54;;;;;;;;;;;3.70;99.90;;;;;;5118111;28;20018;-80
2023/01/27 07:04:20;;;;;;;;;;;3.70;99.90;;;;;;5124658;28;19969;-81
2023/01/27 07:06:46;;;;;;;;;;;3.70;99.90;;;;;;5101700;28;19924;-80
2023/01/27 07:09:11;;;;;;;;;;;3.60;99.90;;;;;;5105202;28;19966;-81
2023/01/27 07:11:37;;;;;;;;;;;3.60;99.90;;;;;;5140142;28;20010;-81
2023/01/27 07:14:02;;;;;;;;;;;3.50;99.90;;;;;;5115483;28;20420;-80
2023/01/27 07:16:28;;;;;;;;;;;3.50;99.90;;;;;;5119345;28;19975;-80
2023/01/27 07:18:53;;;;;;;;;;;3.50;99.90;;;;;;5119947;28;19979;-80
2023/01/27 07:21:19;;;;;;;;;;;3.50;99.90;;;;;;5122272;28;19949;-81
2023/01/27 07:23:45;;;;;;;;;;;3.50;99.90;;;;;;5099323;28;19980;-80
2023/01/27 07:26:10;;;;;;;;;;;3.40;99.90;;;;;;5121038;28;19927;-81
2023/01/27 07:28:36;;;;;;;;;;;3.50;99.90;;;;;;5117531;28;19927;-80
2023/01/27 07:31:01;;;;;;;;;;;3.40;99.90;;;;;;5101908;28;20386;-81
2023/01/27 07:33:27;;;;;;;;;;;3.40;99.90;;;;;;5106522;27;19987;-81
2023/01/27 07:35:54;;;;;;;;;;;3.40;99.90;;;;;;5098664;28;20675;-81
2023/01/27 07:38:20;;;;;;;;;;;3.40;99.90;;;;;;5123809;27;20022;-81
2023/01/27 07:40:45;;;;;;;;;;;3.50;99.90;;;;;;5124221;27;19923;-80
2023/01/27 07:43:11;;;;;;;;;;;3.50;99.90;;;;;;5141945;27;20350;-80
2023/01/27 07:45:37;;;;;;;;;;;3.50;99.90;;;;;;5120342;27;19924;-80
2023/01/27 07:48:03;;;;;;;;;;;3.50;99.90;;;;;;5107841;27;19923;-80
2023/01/27 07:50:29;;;;;;;;;;;3.50;99.90;;;;;;5125410;27;19934;-80
2023/01/27 07:52:57;;;;;;;;;;;3.50;99.90;;;;;;5107087;27;19924;-81
2023/01/27 07:55:22;;;;;;;;;;;3.50;99.90;;;;;;5123472;27;19966;-80
2023/01/27 07:57:48;;;;;;;;;;;3.60;99.90;;;;;;5123884;27;20385;-81
2023/01/27 08:00:14;;;;;;;;;;;3.60;99.90;;;;;;5121077;27;19928;-80
2023/01/27 08:02:40;;;;;;;;;;;3.60;99.90;;;;;;5140779;27;19923;-80
2023/01/27 08:05:06;;;;;;;;;;;3.60;99.90;;;;;;5123020;27;19931;-80
2023/01/27 08:07:31;;;;;;;;;;;3.60;99.90;;;;;;5124946;27;19986;-81
2023/01/27 08:09:57;;;;;;;;;;;3.60;99.90;;;;;;5141434;27;19930;-81
2023/01/27 08:12:22;;;;;;;;;;;3.60;99.90;;;;;;5108656;27;19924;-81
2023/01/27 08:14:48;;;;;;;;;;;3.60;99.90;;;;;;5122955;27;19982;-81
2023/01/27 08:17:13;;;;;;;;;;;3.60;99.90;;;;;;5105447;27;19970;-80
2023/01/27 08:19:39;;;;;;;;;;;3.70;99.90;;;;;;5112134;27;20309;-80
2023/01/27 08:22:04;;;;;;;;;;;3.70;99.90;;;;;;5114708;27;19945;-79
2023/01/27 08:24:30;;;;;;;;;;;3.60;99.90;;;;;;5105486;27;19932;-80
2023/01/27 08:26:56;;;;;;;;;;;3.70;99.90;;;;;;5105979;27;19958;-80
2023/01/27 08:29:21;;;;;;;;;;;3.60;99.90;;;;;;5107974;27;19923;-80
2023/01/27 08:31:47;;;;;;;;;;;3.70;99.90;;;;;;5123314;27;19946;-80
2023/01/27 08:34:12;;;;;;;;;;;3.80;99.90;;;;;;5124248;27;20290;-80
2023/01/27 08:36:42;;;;;;;;;;;3.80;99.90;;;;;;5123220;27;20401;-81
2023/01/27 08:39:08;;;;;;;;;;;3.80;99.90;;;;;;5107222;27;19924;-80
2023/01/27 08:41:35;;;;;;;;;;;3.90;99.90;;;;;;5096306;27;20287;-80
2023/01/27 08:44:01;;;;;;;;;;;3.90;99.90;;;;;;5118327;27;19923;-80
2023/01/27 08:46:27;;;;;;;;;;;3.90;99.90;;;;;;5119498;27;19984;-80
2023/01/27 08:48:52;;;;;;;;;;;4.00;99.90;;;;;;5105872;27;19923;-80
2023/01/27 08:51:18;;;;;;;;;;;4.00;99.90;;;;;;5121021;27;19962;-80
2023/01/27 08:53:44;;;;;;;;;;;4.10;99.90;;;;;;5122958;27;19923;-80
2023/01/27 08:56:11;;;;;;;;;;;4.10;99.90;;;;;;5106922;27;20012;-80
2023/01/27 08:58:36;;;;;;;;;;;4.20;99.90;;;;;;5123503;27;19934;-80
2023/01/27 09:01:03;;;;;;;;;;;4.30;99.90;;;;;;5141828;27;19924;-80
2023/01/27 09:03:29;;;;;;;;;;;4.30;99.90;;;;;;5142930;27;20019;-80
2023/01/27 09:05:55;;;;;;;;;;;4.30;99.90;;;;;;5145980;27;19923;-80
2023/01/27 09:08:21;;;;;;;;;;;4.30;99.90;;;;;;5126083;27;19934;-80
2023/01/27 09:10:46;;;;;;;;;;;4.30;99.90;;;;;;5118178;27;19928;-81
2023/01/27 09:13:12;;;;;;;;;;;4.30;99.90;;;;;;5106974;27;20305;-80
2023/01/27 09:15:39;;;;;;;;;;;4.30;99.90;;;;;;5122927;27;20055;-81
2023/01/27 09:18:05;;;;;;;;;;;4.30;99.90;;;;;;5122835;27;19927;-81
2023/01/27 09:20:30;;;;;;;;;;;4.40;99.90;;;;;;5106963;27;19923;-80
2023/01/27 09:22:56;;;;;;;;;;;4.50;99.90;;;;;;5122543;27;19937;-80
2023/01/27 09:25:22;;;;;;;;;;;4.60;99.90;;;;;;5114375;28;19924;-80
2023/01/27 09:27:47;;;;;;;;;;;4.60;99.90;;;;;;5108970;27;21024;-80
2023/01/27 09:30:14;;;;;;;;;;;4.70;99.90;;;;;;5123451;27;19923;-80
2023/01/27 09:32:39;;;;;;;;;;;4.60;99.90;;;;;;5123062;27;19972;-80
2023/01/27 09:35:06;;;;;;;;;;;4.60;99.90;;;;;;5123518;27;19923;-79
2023/01/27 09:37:32;;;;;;;;;;;4.70;99.90;;;;;;5104225;28;19953;-80
2023/01/27 09:40:00;;;;;;;;;;;4.60;99.90;;;;;;5105228;27;20393;-81
2023/01/27 09:42:28;;;;;;;;;;;4.60;99.90;;;;;;5120023;28;20002;-80
2023/01/27 09:44:54;;;;;;;;;;;4.60;99.90;;;;;;5101419;28;20359;-80
2023/01/27 09:47:29;;;;;;;;;;;4.60;99.90;;;;;;5110023;28;19947;-80
2023/01/27 09:50:13;;;;;;;;;;;4.60;99.90;;;;;;5117341;28;19923;-80
2023/01/27 09:52:48;;;;;;;;;;;4.70;99.90;;;;;;5099802;28;19924;-81
2023/01/27 09:55:17;;;;;;;;;;;4.70;99.90;;;;;;5120005;28;19939;-80
2023/01/27 09:57:45;;;;;;;;;;;4.70;99.90;;;;;;5117364;28;19927;-80
2023/01/27 10:00:11;;;;;;;;;;;4.70;99.90;;;;;;5119294;28;19924;-81
2023/01/27 10:02:52;;;;;;;;;;;4.70;99.90;;;;;;5118874;28;19928;-81
2023/01/27 10:05:28;;;;;;;;;;;4.70;99.90;;;;;;5118351;28;19924;-81
2023/01/27 10:08:02;;;;;;;;;;;4.70;99.90;;;;;;5107547;28;19953;-80
2023/01/27 10:10:42;;;;;;;;;;;4.70;99.90;;;;;;5100860;28;19983;-81
2023/01/27 10:13:17;;;;;;;;;;;4.70;99.90;;;;;;5105909;28;20007;-80
2023/01/27 10:15:52;;;;;;;;;;;4.70;99.90;;;;;;5101636;28;19923;-80
2023/01/27 10:18:39;;;;;;;;;;;4.70;99.90;;;;;;5117848;28;19975;-80
2023/01/27 10:21:24;;;;;;;;;;;4.70;99.90;;;;;;5119230;28;19934;-80
2023/01/27 10:24:08;;;;;;;;;;;4.70;99.90;;;;;;5112478;28;19928;-80
2023/01/27 10:26:46;;;;;;;;;;;4.60;99.90;;;;;;5118222;28;20010;-79
2023/01/27 10:29:18;;;;;;;;;;;4.60;99.90;;;;;;5094120;28;20527;-80
2023/01/27 10:32:02;;;;;;;;;;;4.50;99.90;;;;;;5117336;28;20585;-80
2023/01/27 10:34:34;;;;;;;;;;;4.50;99.90;;;;;;5096424;28;19940;-80
2023/01/27 10:37:16;;;;;;;;;;;4.40;99.90;;;;;;5118310;28;20020;-79
2023/01/27 10:39:46;;;;;;;;;;;4.40;99.90;;;;;;5115943;28;19985;-80
2023/01/27 10:42:18;;;;;;;;;;;4.40;99.90;;;;;;5106952;28;19923;-80
2023/01/27 10:44:52;;;;;;;;;;;4.30;99.90;;;;;;5087738;28;19934;-80
2023/01/27 10:47:33;;;;;;;;;;;4.40;99.90;;;;;;5090232;28;20350;-80
2023/01/27 10:50:08;;;;;;;;;;;4.30;99.90;;;;;;5111866;28;19923;-80
2023/01/27 10:52:37;;;;;;;;;;;4.30;99.90;;;;;;5111237;28;19930;-80
2023/01/27 10:55:13;;;;;;;;;;;4.30;99.90;;;;;;5124799;28;19930;-81
2023/01/27 10:57:44;;;;;;;;;;;4.30;99.90;;;;;;5101004;28;19927;-81
2023/01/27 11:00:28;;;;;;;;;;;4.30;99.90;;;;;;5109429;28;19987;-80
2023/01/27 11:03:05;;;;;;;;;;;4.30;99.90;;;;;;5122692;28;19923;-81
2023/01/27 11:05:40;;;;;;;;;;;4.30;99.90;;;;;;5127459;28;19994;-80
2023/01/27 11:08:09;;;;;;;;;;;4.30;99.90;;;;;;5129901;28;19923;-80
2023/01/27 11:10:36;;;;;;;;;;;4.30;99.90;;;;;;5109575;28;19931;-80
2023/01/27 11:13:04;;;;;;;;;;;4.30;99.90;;;;;;5106278;28;19931;-80
2023/01/27 11:15:34;;;;;;;;;;;4.30;99.90;;;;;;5121836;28;19924;-80
2023/01/27 11:17:59;;;;;;;;;;;4.30;99.90;;;;;;5122002;28;19928;-80
2023/01/27 11:20:33;;;;;;;;;;;4.30;99.90;;;;;;5113632;28;19928;-80
2023/01/27 11:22:59;;;;;;;;;;;4.30;99.90;;;;;;5119404;28;20014;-79
2023/01/27 11:25:40;;;;;;;;;;;4.30;99.90;;;;;;5123034;28;20351;-80
2023/01/27 11:28:09;;;;;;;;;;;4.30;99.90;;;;;;5104342;28;19924;-79
2023/01/27 11:30:41;;;;;;;;;;;4.30;99.90;;;;;;5105354;28;19924;-80
2023/01/27 11:33:16;;;;;;;;;;;4.30;99.90;;;;;;5122355;28;19927;-80
2023/01/27 11:35:42;;;;;;;;;;;4.30;99.90;;;;;;5105760;28;20508;-79
2023/01/27 11:38:12;;;;;;;;;;;4.30;99.90;;;;;;5123905;28;19965;-80
2023/01/27 11:40:40;;;;;;;;;;;4.40;99.90;;;;;;5102844;28;19988;-80
2023/01/27 11:43:06;;;;;;;;;;;4.40;99.90;;;;;;5120750;27;19944;-80
2023/01/27 11:45:35;;;;;;;;;;;4.50;99.90;;;;;;5100901;28;19924;-80
2023/01/27 11:48:01;;;;;;;;;;;4.40;99.90;;;;;;5137822;27;19933;-79
2023/01/27 11:50:34;;;;;;;;;;;4.40;99.90;;;;;;5117932;27;19927;-80
2023/01/27 11:53:15;;;;;;;;;;;4.40;99.90;;;;;;5118449;27;19928;-80
2023/01/27 11:55:53;;;;;;;;;;;4.50;99.90;;;;;;5112323;27;19927;-80
2023/01/27 11:58:38;;;;;;;;;;;4.50;99.90;;;;;;5124529;27;19924;-80
2023/01/27 12:01:16;;;;;;;;;;;4.50;99.90;;;;;;5124439;27;19923;-80
2023/01/27 12:03:44;;;;;;;;;;;4.50;99.90;;;;;;5125366;27;19938;-80
2023/01/27 12:06:13;;;;;;;;;;;4.50;99.90;;;;;;5131353;27;19923;-80
2023/01/27 12:08:39;;;;;;;;;;;4.50;99.90;;;;;;5117039;27;19928;-80
2023/01/27 12:11:19;;;;;;;;;;;4.50;99.90;;;;;;5120374;28;19935;-80
2023/01/27 12:13:52;;;;;;;;;;;4.50;99.90;;;;;;5098573;27;19979;-79
2023/01/27 12:16:18;;;;;;;;;;;4.50;99.90;;;;;;5124394;27;19929;-80
2023/01/27 12:18:50;;;;;;;;;;;4.40;99.90;;;;;;5123574;27;19931;-80
2023/01/27 12:21:16;;;;;;;;;;;4.50;99.90;;;;;;5124903;27;20353;-80
2023/01/27 12:23:52;;;;;;;;;;;4.50;99.90;;;;;;5123854;27;20382;-80
2023/01/27 12:26:38;;;;;;;;;;;4.50;99.90;;;;;;5107382;27;19924;-80
2023/01/27 12:29:05;;;;;;;;;;;4.50;99.90;;;;;;5124840;27;19931;-80
2023/01/27 12:31:32;;;;;;;;;;;4.50;99.90;;;;;;5141876;27;19937;-80
2023/01/27 12:33:59;;;;;;;;;;;4.40;99.90;;;;;;5124838;27;19927;-80
2023/01/27 12:36:25;;;;;;;;;;;4.50;99.90;;;;;;5091881;27;19928;-80
2023/01/27 12:38:52;;;;;;;;;;;4.50;99.90;;;;;;5116265;27;19930;-79
2023/01/27 12:41:25;;;;;;;;;;;4.50;99.90;;;;;;5148274;27;19923;-80
2023/01/27 12:43:55;;;;;;;;;;;4.60;99.90;;;;;;5135995;27;19942;-80
2023/01/27 12:46:25;;;;;;;;;;;4.60;99.90;;;;;;5124809;27;19923;-79
2023/01/27 12:48:52;;;;;;;;;;;4.60;99.90;;;;;;5109410;27;19971;-81
2023/01/27 12:51:22;;;;;;;;;;;4.60;99.90;;;;;;5124331;27;19967;-80
2023/01/27 12:53:49;;;;;;;;;;;4.70;99.90;;;;;;5123464;27;19983;-80
2023/01/27 12:56:17;;;;;;;;;;;4.70;99.90;;;;;;5106827;27;19927;-80
2023/01/27 12:58:54;;;;;;;;;;;4.70;99.90;;;;;;5123945;27;19924;-80
2023/01/27 13:01:25;;;;;;;;;;;4.60;99.90;;;;;;5122894;27;19924;-80
2023/01/27 13:04:10;;;;;;;;;;;4.60;99.90;;;;;;5124158;27;19923;-80
2023/01/27 13:06:42;;;;;;;;;;;4.60;99.90;;;;;;5122856;27;19958;-80
2023/01/27 13:09:22;;;;;;;;;;;4.60;99.90;;;;;;5106647;27;19972;-80
2023/01/27 13:11:48;;;;;;;;;;;4.60;99.90;;;;;;5124272;27;19958;-80
2023/01/27 13:14:15;;;;;;;;;;;4.60;99.90;;;;;;5108148;27;19924;-80
2023/01/27 13:16:41;;;;;;;;;;;4.60;99.90;;;;;;5123808;27;19930;-80
2023/01/27 13:19:14;;;;;;;;;;;4.50;99.90;;;;;;5122643;27;19931;-80
2023/01/27 13:21:41;;;;;;;;;;;4.50;99.90;;;;;;5123374;27;19945;-80
2023/01/27 13:24:13;;;;;;;;;;;4.50;99.90;;;;;;5122890;27;19933;-80
2023/01/27 13:26:39;;;;;;;;;;;4.50;99.90;;;;;;5122592;27;19963;-80
2023/01/27 13:29:08;;;;;;;;;;;4.50;99.90;;;;;;5111645;28;19931;-80
2023/01/27 13:31:47;;;;;;;;;;;4.50;99.90;;;;;;5103264;27;19924;-80
2023/01/27 13:34:22;;;;;;;;;;;4.50;99.90;;;;;;5123628;27;19973;-80
2023/01/27 13:37:05;;;;;;;;;;;4.50;99.90;;;;;;5122324;27;19971;-80
2023/01/27 13:39:44;;;;;;;;;;;4.40;99.90;;;;;;5105340;27;19986;-79
2023/01/27 13:42:25;;;;;;;;;;;4.40;99.90;;;;;;5123724;27;19924;-80
2023/01/27 13:44:55;;;;;;;;;;;4.40;99.90;;;;;;5121853;27;19923;-80
2023/01/27 13:47:44;;;;;;;;;;;4.40;99.90;;;;;;5122963;27;19924;-80
2023/01/27 13:50:28;;;;;;;;;;;4.50;99.90;;;;;;5122640;27;19933;-80
2023/01/27 13:52:55;;;;;;;;;;;4.40;99.90;;;;;;5121739;27;19923;-80
2023/01/27 13:55:25;;;;;;;;;;;4.40;99.90;;;;;;5123056;27;19961;-80
2023/01/27 13:58:06;;;;;;;;;;;4.50;99.90;;;;;;5093881;28;19936;-80
2023/01/27 14:00:37;;;;;;;;;;;4.50;99.90;;;;;;5104312;27;19924;-80
2023/01/27 14:03:12;;;;;;;;;;;4.50;99.90;;;;;;5122881;27;20009;-80
2023/01/27 14:05:37;;;;;;;;;;;4.50;99.90;;;;;;5106825;27;19927;-79
2023/01/27 14:08:21;;;;;;;;;;;4.50;99.90;;;;;;5137730;27;19955;-80
2023/01/27 14:10:47;;;;;;;;;;;4.50;99.90;;;;;;5140192;27;19927;-79
2023/01/27 14:13:36;;;;;;;;;;;4.50;99.90;;;;;;5122389;27;19923;-80
2023/01/27 14:16:06;;;;;;;;;;;4.50;99.90;;;;;;5097257;27;20006;-79
2023/01/27 14:18:37;;;;;;;;;;;4.50;99.90;;;;;;5121242;27;19923;-80
2023/01/27 14:21:16;;;;;;;;;;;4.50;99.90;;;;;;5122895;27;20034;-79
2023/01/27 14:23:45;;;;;;;;;;;4.50;99.90;;;;;;5121828;27;19924;-80
2023/01/27 14:26:15;;;;;;;;;;;4.50;99.90;;;;;;5122004;27;19937;-80
2023/01/27 14:29:00;;;;;;;;;;;4.50;99.90;;;;;;5122874;27;19946;-79
2023/01/27 14:31:44;;;;;;;;;;;4.40;99.90;;;;;;5121219;27;19929;-80
2023/01/27 14:34:25;;;;;;;;;;;4.40;99.90;;;;;;5122693;27;19923;-79
2023/01/27 14:37:09;;;;;;;;;;;4.50;99.90;;;;;;5141607;27;19924;-79
2023/01/27 14:39:40;;;;;;;;;;;4.40;99.90;;;;;;5120618;28;19923;-80
2023/01/27 14:42:15;;;;;;;;;;;4.40;99.90;;;;;;5119190;28;19923;-79
2023/01/27 14:45:00;;;;;;;;;;;4.40;99.90;;;;;;5117020;28;19931;-80
2023/01/27 14:47:32;;;;;;;;;;;4.40;99.90;;;;;;5120157;28;19924;-79
2023/01/27 14:49:57;;;;;;;;;;;4.40;99.90;;;;;;5118649;28;19928;-80
2023/01/27 14:52:29;;;;;;;;;;;4.40;99.90;;;;;;5118231;28;19934;-80
2023/01/27 14:54:57;;;;;;;;;;;4.40;99.90;;;;;;5119530;28;20290;-80
2023/01/27 14:57:31;;;;;;;;;;;4.40;99.90;;;;;;5117708;28;19924;-80
2023/01/27 15:00:01;;;;;;;;;;;4.30;99.90;;;;;;5118790;28;19945;-80
2023/01/27 15:02:39;;;;;;;;;;;4.40;99.90;;;;;;5118339;28;20010;-80
2023/01/27 15:05:21;;;;;;;;;;;4.30;99.90;;;;;;5118141;28;19923;-80
2023/01/27 15:07:56;;;;;;;;;;;4.30;99.90;;;;;;5128983;28;19994;-80
2023/01/27 15:10:26;;;;;;;;;;;4.30;99.90;;;;;;5109354;28;19930;-80
2023/01/27 15:12:57;;;;;;;;;;;4.30;99.90;;;;;;5118586;28;19923;-80
2023/01/27 15:15:29;;;;;;;;;;;4.30;99.90;;;;;;5100579;28;19924;-81
2023/01/27 15:17:54;;;;;;;;;;;4.30;99.90;;;;;;5117982;28;19931;-81
2023/01/27 15:20:29;;;;;;;;;;;4.30;99.90;;;;;;5102022;28;19924;-81
2023/01/27 15:23:07;;;;;;;;;;;4.30;99.90;;;;;;5117025;28;19928;-81